Time;durP1;ratioP1;P1;durP2;ratioP2;P2;SDS_P1;SDS_P2;PMS_P1;PMS_P2;Temp;Humidity;BMP_temperature;BMP_pressure;BME280_temperature;BME280_humidity;BME280_pressure;Samples;Min_cycle;Max_cycle;Signal;HPM_P1;HPM_P2
2022/07/27 00:00:58;;;;;;;9.25;2.17;;;16.90;99.90;;;;;;4932247;29;20035;-56
2022/07/27 00:03:24;;;;;;;10.52;1.80;;;16.90;99.90;;;;;;4925469;29;20039;-60
2022/07/27 00:05:50;;;;;;;6.45;1.88;;;16.80;99.90;;;;;;4937020;29;20051;-58
2022/07/27 00:08:18;;;;;;;6.15;1.20;;;16.80;99.90;;;;;;4931148;29;20027;-57
2022/07/27 00:10:44;;;;;;;4.38;1.65;;;16.80;99.90;;;;;;4934139;28;20028;-58
2022/07/27 00:13:10;;;;;;;12.57;2.35;;;16.80;99.90;;;;;;4938314;28;20034;-58
2022/07/27 00:15:35;;;;;;;13.27;4.00;;;16.80;99.90;;;;;;4932558;29;20058;-53
2022/07/27 00:18:01;;;;;;;7.30;1.63;;;16.80;99.90;;;;;;4930986;29;20115;-55
2022/07/27 00:20:30;;;;;;;8.18;1.45;;;16.70;99.90;;;;;;4932695;29;20039;-58
2022/07/27 00:22:57;;;;;;;4.55;1.65;;;16.70;99.90;;;;;;4927677;29;20154;-57
2022/07/27 00:25:23;;;;;;;9.07;1.75;;;16.70;99.90;;;;;;4932373;29;20047;-57
2022/07/27 00:27:49;;;;;;;7.80;1.80;;;16.60;99.90;;;;;;4896455;28;20055;-58
2022/07/27 00:30:15;;;;;;;5.38;1.40;;;16.70;99.90;;;;;;4934178;28;20082;-56
2022/07/27 00:32:41;;;;;;;8.52;2.00;;;16.60;99.90;;;;;;4931597;29;20046;-57
2022/07/27 00:35:07;;;;;;;10.27;1.85;;;16.60;99.90;;;;;;4927533;29;20102;-57
2022/07/27 00:37:33;;;;;;;4.82;1.23;;;16.60;99.90;;;;;;4930621;29;20054;-56
2022/07/27 00:39:58;;;;;;;7.38;1.50;;;16.50;99.90;;;;;;4933016;29;20470;-54
2022/07/27 00:42:27;;;;;;;5.55;1.35;;;16.40;99.90;;;;;;4931001;29;20023;-57
2022/07/27 00:44:54;;;;;;;9.60;1.60;;;16.30;99.90;;;;;;4930436;29;20035;-58
2022/07/27 00:47:20;;;;;;;8.20;1.42;;;16.30;99.90;;;;;;4930575;28;20493;-56
2022/07/27 00:49:46;;;;;;;4.70;1.40;;;16.20;99.90;;;;;;4929001;29;20024;-56
2022/07/27 00:52:12;;;;;;;5.28;1.60;;;16.20;99.90;;;;;;4931365;29;20034;-55
2022/07/27 00:54:39;;;;;;;6.28;2.42;;;16.10;99.90;;;;;;4933166;29;20107;-56
2022/07/27 00:57:05;;;;;;;7.45;1.40;;;15.90;99.90;;;;;;4932762;29;20563;-55
2022/07/27 00:59:31;;;;;;;6.45;1.65;;;15.90;99.90;;;;;;4931661;29;20059;-58
2022/07/27 01:01:57;;;;;;;5.45;1.13;;;15.80;99.90;;;;;;4944666;23;20131;-58
2022/07/27 01:04:22;;;;;;;6.55;1.75;;;15.80;99.90;;;;;;4939910;28;20138;-58
2022/07/27 01:06:48;;;;;;;8.02;1.48;;;15.70;99.90;;;;;;4930744;29;20164;-58
2022/07/27 01:11:59;;;;;;;7.97;2.35;;;15.60;99.90;;;;;;4919684;29;20529;-58
2022/07/27 01:14:25;;;;;;;5.65;1.50;;;15.50;99.90;;;;;;4929006;29;20051;-56
2022/07/27 01:16:50;;;;;;;11.20;1.52;;;15.50;99.90;;;;;;4931971;29;20031;-57
2022/07/27 01:19:16;;;;;;;3.75;1.35;;;15.40;99.90;;;;;;4928328;29;20027;-56
2022/07/27 01:21:42;;;;;;;5.80;1.55;;;15.40;99.90;;;;;;4927549;29;20035;-55
2022/07/27 01:24:08;;;;;;;6.80;1.67;;;15.40;99.90;;;;;;4933148;29;20055;-55
2022/07/27 01:26:35;;;;;;;4.88;1.42;;;15.30;99.90;;;;;;4929219;29;20064;-57
2022/07/27 01:29:01;;;;;;;4.78;1.63;;;15.20;99.90;;;;;;4931654;29;20035;-51
2022/07/27 01:31:27;;;;;;;5.50;1.58;;;15.20;99.90;;;;;;4930124;29;20027;-55
2022/07/27 01:33:53;;;;;;;5.10;1.23;;;15.20;99.90;;;;;;4929956;29;20082;-60
2022/07/27 01:36:19;;;;;;;5.50;1.48;;;15.10;99.90;;;;;;4943305;28;20430;-61
2022/07/27 01:38:45;;;;;;;3.95;1.25;;;15.10;99.90;;;;;;4928780;29;20498;-55
2022/07/27 01:41:11;;;;;;;8.45;1.30;;;15.00;99.90;;;;;;4931312;29;20036;-54
2022/07/27 01:43:37;;;;;;;5.40;1.63;;;15.00;99.90;;;;;;4932780;29;20059;-52
2022/07/27 01:46:03;;;;;;;6.25;1.08;;;15.00;99.90;;;;;;4930892;28;20082;-54
2022/07/27 01:48:29;;;;;;;8.05;1.60;;;14.90;99.90;;;;;;4911979;29;20399;-57
2022/07/27 01:50:55;;;;;;;10.27;1.42;;;14.90;99.90;;;;;;4930094;29;20061;-52
2022/07/27 01:53:21;;;;;;;7.90;1.55;;;14.80;99.90;;;;;;4933021;29;20043;-52
2022/07/27 01:55:48;;;;;;;9.27;1.90;;;14.70;99.90;;;;;;4928574;29;20450;-56
2022/07/27 01:58:14;;;;;;;6.88;1.10;;;14.70;99.90;;;;;;4939001;28;20024;-57
2022/07/27 02:00:40;;;;;;;4.35;1.15;;;14.70;99.90;;;;;;4927825;29;20100;-57
2022/07/27 02:03:08;;;;;;;11.82;1.52;;;14.60;99.90;;;;;;4930295;29;20185;-54
2022/07/27 02:05:35;;;;;;;6.90;1.42;;;14.60;99.90;;;;;;4929742;29;20051;-50
2022/07/27 02:08:02;;;;;;;7.05;1.40;;;14.50;99.90;;;;;;4932153;28;20059;-51
2022/07/27 02:10:27;;;;;;;8.23;1.42;;;14.40;99.90;;;;;;4930050;28;20062;-55
2022/07/27 02:12:53;;;;;;;8.20;1.67;;;14.40;99.90;;;;;;4936128;29;20107;-49
2022/07/27 02:15:21;;;;;;;8.98;1.50;;;14.30;99.90;;;;;;4930520;29;20097;-57
2022/07/27 02:17:48;;;;;;;6.43;2.45;;;14.30;99.90;;;;;;4927529;28;20020;-54
2022/07/27 02:20:16;;;;;;;9.05;1.38;;;14.30;99.90;;;;;;4928046;28;20028;-53
2022/07/27 02:22:42;;;;;;;6.97;1.13;;;14.30;99.90;;;;;;4916490;28;20102;-56
2022/07/27 02:25:09;;;;;;;5.82;1.77;;;14.30;99.90;;;;;;4929188;29;20633;-54
2022/07/27 02:27:35;;;;;;;8.30;1.80;;;14.20;99.90;;;;;;4932871;29;20572;-56
2022/07/27 02:30:01;;;;;;;4.78;1.40;;;14.30;99.90;;;;;;4936936;28;20171;-58
2022/07/27 02:32:27;;;;;;;7.57;1.50;;;14.30;99.90;;;;;;4935636;28;20501;-57
2022/07/27 02:34:52;;;;;;;9.27;1.67;;;14.30;99.90;;;;;;4932673;29;20086;-56
2022/07/27 02:37:18;;;;;;;5.65;1.42;;;14.30;99.90;;;;;;4923729;29;20031;-54
2022/07/27 02:39:44;;;;;;;9.40;1.38;;;14.30;99.90;;;;;;4917462;29;20036;-57
2022/07/27 02:42:09;;;;;;;8.45;2.47;;;14.30;99.90;;;;;;4930288;29;20054;-59
2022/07/27 02:44:35;;;;;;;5.10;1.35;;;14.30;99.90;;;;;;4924466;29;20115;-57
2022/07/27 02:47:01;;;;;;;8.95;1.70;;;14.30;99.90;;;;;;4933844;29;20035;-59
2022/07/27 02:49:26;;;;;;;8.02;1.30;;;14.30;99.90;;;;;;4935160;29;20035;-60
2022/07/27 02:51:53;;;;;;;10.70;2.67;;;14.20;99.90;;;;;;4935042;29;20032;-58
2022/07/27 02:54:23;;;;;;;13.93;1.40;;;14.20;99.90;;;;;;4935544;29;20043;-60
2022/07/27 02:56:51;;;;;;;10.82;1.73;;;14.10;99.90;;;;;;4934202;28;20058;-57
2022/07/27 02:59:17;;;;;;;14.52;2.55;;;14.20;99.90;;;;;;4934883;29;20039;-59
2022/07/27 03:01:43;;;;;;;8.82;1.60;;;14.20;99.90;;;;;;4934741;28;20118;-59
2022/07/27 03:04:09;;;;;;;9.35;2.30;;;14.20;99.90;;;;;;4934961;29;20065;-57
2022/07/27 03:06:35;;;;;;;3.97;1.52;;;14.20;99.90;;;;;;4934661;29;20040;-59
2022/07/27 03:09:01;;;;;;;8.15;1.15;;;14.10;99.90;;;;;;4934859;29;20094;-58
2022/07/27 03:11:27;;;;;;;7.20;1.42;;;14.10;99.90;;;;;;4934749;28;20443;-60
2022/07/27 03:13:52;;;;;;;8.68;1.83;;;14.10;99.90;;;;;;4934341;29;20019;-60
2022/07/27 03:16:18;;;;;;;6.63;1.70;;;14.10;99.90;;;;;;4934381;29;20106;-59
2022/07/27 03:18:43;;;;;;;7.70;1.75;;;14.10;99.90;;;;;;4934172;29;20040;-60
2022/07/27 03:21:09;;;;;;;6.75;1.33;;;14.10;99.90;;;;;;4916987;28;20048;-51
2022/07/27 03:23:35;;;;;;;6.35;1.55;;;14.00;99.90;;;;;;4934399;29;20422;-59
2022/07/27 03:26:00;;;;;;;6.50;1.88;;;14.00;99.90;;;;;;4934170;29;20118;-58
2022/07/27 03:28:26;;;;;;;9.68;1.40;;;14.00;99.90;;;;;;4934664;29;20098;-58
2022/07/27 03:30:51;;;;;;;3.03;1.02;;;13.90;99.90;;;;;;4933555;28;20024;-58
2022/07/27 03:33:17;;;;;;;5.88;1.30;;;13.80;99.90;;;;;;4934396;28;20035;-59
2022/07/27 03:35:43;;;;;;;5.75;1.65;;;13.80;99.90;;;;;;4933791;29;20024;-59
2022/07/27 03:38:09;;;;;;;6.07;1.63;;;13.70;99.90;;;;;;4933614;28;20024;-59
2022/07/27 03:40:34;;;;;;;4.30;1.58;;;13.70;99.90;;;;;;4932197;29;20434;-58
2022/07/27 03:43:00;;;;;;;5.00;1.40;;;13.70;99.90;;;;;;4933440;29;20031;-58
2022/07/27 03:45:26;;;;;;;10.20;1.60;;;13.60;99.90;;;;;;4933340;29;20122;-59
2022/07/27 03:47:52;;;;;;;5.38;1.50;;;13.60;99.90;;;;;;4933402;29;20035;-56
2022/07/27 03:50:18;;;;;;;8.30;1.60;;;13.60;99.90;;;;;;4932912;29;20043;-58
2022/07/27 03:52:44;;;;;;;13.13;1.55;;;13.60;99.90;;;;;;4929707;29;20051;-58
2022/07/27 03:55:09;;;;;;;8.55;1.17;;;13.60;99.90;;;;;;4930309;29;20497;-59
2022/07/27 03:57:35;;;;;;;6.32;1.80;;;13.60;99.90;;;;;;4930270;28;20039;-58
2022/07/27 04:00:01;;;;;;;3.40;1.10;;;13.60;99.90;;;;;;4933574;29;20043;-60
2022/07/27 04:02:27;;;;;;;7.55;1.60;;;13.50;99.90;;;;;;4931686;29;20031;-59
2022/07/27 04:04:52;;;;;;;8.02;1.73;;;13.60;99.90;;;;;;4932646;29;20056;-60
2022/07/27 04:07:18;;;;;;;3.17;1.00;;;13.60;99.90;;;;;;4932941;29;20425;-60
2022/07/27 04:09:43;;;;;;;4.93;1.55;;;13.60;99.90;;;;;;4942207;28;20035;-56
2022/07/27 04:12:09;;;;;;;6.13;1.67;;;13.60;99.90;;;;;;4933117;29;20525;-57
2022/07/27 04:14:35;;;;;;;5.88;1.30;;;13.60;99.90;;;;;;4932196;29;20406;-57
2022/07/27 04:17:00;;;;;;;7.43;1.30;;;13.60;99.90;;;;;;4932879;28;20142;-62
2022/07/27 04:19:26;;;;;;;6.07;1.55;;;13.60;99.90;;;;;;4932871;29;20032;-57
2022/07/27 04:21:52;;;;;;;11.48;1.60;;;13.60;99.90;;;;;;4912674;28;20040;-60
2022/07/27 04:24:17;;;;;;;6.60;1.50;;;13.70;99.90;;;;;;4933372;29;20702;-58
2022/07/27 04:26:43;;;;;;;3.53;1.30;;;13.80;99.90;;;;;;4933050;29;20031;-58
2022/07/27 04:29:08;;;;;;;9.25;1.50;;;13.80;99.90;;;;;;4933886;29;20032;-60
2022/07/27 04:31:34;;;;;;;4.15;1.40;;;13.90;99.90;;;;;;4932918;29;20071;-56
2022/07/27 04:34:00;;;;;;;5.55;1.25;;;13.90;99.90;;;;;;4932067;29;20028;-57
2022/07/27 04:36:25;;;;;;;5.68;1.70;;;13.90;99.90;;;;;;4931874;28;20483;-57
2022/07/27 04:38:51;;;;;;;8.20;1.75;;;13.90;99.90;;;;;;4931612;29;20494;-61
2022/07/27 04:41:16;;;;;;;7.95;1.42;;;13.90;99.90;;;;;;4932653;29;20031;-58
2022/07/27 04:43:42;;;;;;;5.28;2.15;;;13.90;99.90;;;;;;4933713;29;20032;-58
2022/07/27 04:46:08;;;;;;;4.03;1.40;;;13.80;99.90;;;;;;4932255;29;20039;-57
2022/07/27 04:48:34;;;;;;;5.13;1.65;;;14.00;99.90;;;;;;4932349;29;20409;-59
2022/07/27 04:51:00;;;;;;;6.45;1.60;;;14.20;99.90;;;;;;4932773;29;20020;-57
2022/07/27 04:53:26;;;;;;;8.65;1.80;;;14.60;99.90;;;;;;4933229;29;20028;-59
2022/07/27 04:55:52;;;;;;;4.35;1.77;;;15.20;99.90;;;;;;4931453;28;20027;-60
2022/07/27 04:58:18;;;;;;;4.40;1.45;;;16.20;99.90;;;;;;4932769;29;20032;-58
2022/07/27 05:00:43;;;;;;;5.43;1.30;;;17.50;99.90;;;;;;4932564;29;20039;-58
2022/07/27 05:03:09;;;;;;;8.77;1.40;;;18.90;98.40;;;;;;4931939;28;20047;-60
2022/07/27 05:05:35;;;;;;;6.70;1.20;;;20.10;95.80;;;;;;4932171;28;20065;-57
2022/07/27 05:08:01;;;;;;;5.00;1.13;;;20.70;93.50;;;;;;4931769;29;20036;-61
2022/07/27 05:10:27;;;;;;;7.03;2.03;;;21.00;92.60;;;;;;4931376;29;20032;-59
2022/07/27 05:12:53;;;;;;;9.13;1.52;;;21.50;91.00;;;;;;4928558;29;20445;-61
2022/07/27 05:15:19;;;;;;;5.03;1.20;;;22.30;89.40;;;;;;4931372;29;20076;-60
2022/07/27 05:17:45;;;;;;;5.20;1.60;;;22.50;88.10;;;;;;4931603;29;20023;-57
2022/07/27 05:20:11;;;;;;;2.85;1.10;;;23.40;86.00;;;;;;4931565;29;20042;-59
2022/07/27 05:22:37;;;;;;;7.68;1.65;;;23.60;83.50;;;;;;4917672;29;20063;-60
2022/07/27 05:25:03;;;;;;;3.90;0.93;;;24.80;79.60;;;;;;4931242;29;20040;-61
2022/07/27 05:27:29;;;;;;;5.45;1.85;;;24.70;79.50;;;;;;4931688;28;20042;-59
2022/07/27 05:29:54;;;;;;;4.60;1.20;;;24.30;78.80;;;;;;4930271;29;20031;-59
2022/07/27 05:32:20;;;;;;;6.47;1.42;;;25.10;77.80;;;;;;4934384;29;20509;-61
2022/07/27 05:34:46;;;;;;;5.30;1.15;;;25.70;75.40;;;;;;4930311;29;20043;-58
2022/07/27 05:37:12;;;;;;;3.80;1.08;;;26.20;74.20;;;;;;4933681;29;20023;-58
2022/07/27 05:39:40;;;;;;;7.50;1.25;;;26.50;72.70;;;;;;4934345;29;20031;-59
2022/07/27 05:42:09;;;;;;;5.05;1.23;;;26.20;72.70;;;;;;4934521;29;20031;-60
2022/07/27 05:44:35;;;;;;;6.40;1.33;;;25.70;73.10;;;;;;4936798;29;20086;-58
2022/07/27 05:47:01;;;;;;;6.05;1.40;;;27.00;71.30;;;;;;4940674;28;20459;-60
2022/07/27 05:49:27;;;;;;;3.65;1.25;;;26.80;70.00;;;;;;4936459;28;20553;-61
2022/07/27 05:51:52;;;;;;;5.68;1.40;;;26.60;69.90;;;;;;4935712;29;20569;-60
2022/07/27 05:54:18;;;;;;;7.25;1.40;;;26.40;71.90;;;;;;4934787;29;20027;-60
2022/07/27 05:56:44;;;;;;;4.47;1.50;;;27.30;69.90;;;;;;4935578;29;20032;-59
2022/07/27 05:59:10;;;;;;;8.32;1.55;;;26.90;69.30;;;;;;4934178;28;20508;-61
2022/07/27 06:01:37;;;;;;;5.40;1.42;;;27.30;68.10;;;;;;4934943;29;20043;-57
2022/07/27 06:04:03;;;;;;;8.90;1.52;;;27.60;67.80;;;;;;4934427;29;20431;-61
2022/07/27 06:09:13;;;;;;;3.53;1.38;;;28.20;66.50;;;;;;4934782;29;20516;-61
2022/07/27 06:11:38;;;;;;;6.68;1.48;;;27.30;66.30;;;;;;4935342;28;20059;-61
2022/07/27 06:14:04;;;;;;;4.95;1.13;;;27.20;67.80;;;;;;4934562;29;20110;-60
2022/07/27 06:16:30;;;;;;;4.07;1.20;;;27.60;67.30;;;;;;4934824;29;20034;-61
2022/07/27 06:18:55;;;;;;;5.78;1.17;;;27.50;66.20;;;;;;4934509;28;20083;-60
2022/07/27 06:21:25;;;;;;;5.05;1.27;;;28.00;67.00;;;;;;4933523;29;20087;-60
2022/07/27 06:23:52;;;;;;;5.13;1.20;;;27.70;66.50;;;;;;4917624;28;20052;-59
2022/07/27 06:26:17;;;;;;;6.15;1.27;;;27.60;66.20;;;;;;4934334;29;20040;-59
2022/07/27 06:28:43;;;;;;;6.43;1.50;;;28.70;63.50;;;;;;4934986;29;20054;-59
2022/07/27 06:31:08;;;;;;;2.85;0.90;;;28.10;65.00;;;;;;4933907;28;20059;-59
2022/07/27 06:33:34;;;;;;;8.85;1.42;;;28.80;63.50;;;;;;4935394;29;20032;-59
2022/07/27 06:36:00;;;;;;;4.10;1.08;;;28.80;62.70;;;;;;4934232;28;20083;-59
2022/07/27 06:38:27;;;;;;;6.80;1.35;;;28.20;63.50;;;;;;4934403;29;20107;-60
2022/07/27 06:40:53;;;;;;;2.78;1.00;;;28.00;64.40;;;;;;4933700;29;20046;-59
2022/07/27 06:43:25;;;;;;;4.60;1.00;;;28.50;63.30;;;;;;4934465;28;20469;-59
2022/07/27 06:45:53;;;;;;;3.65;1.10;;;28.00;63.40;;;;;;4930646;29;20108;-60
2022/07/27 06:48:20;;;;;;;2.97;1.00;;;27.30;65.00;;;;;;4934143;29;20110;-59
2022/07/27 06:50:46;;;;;;;3.13;0.90;;;27.60;64.60;;;;;;4930084;29;20071;-59
2022/07/27 06:53:12;;;;;;;4.13;0.90;;;27.60;64.90;;;;;;4934840;28;20024;-60
2022/07/27 06:55:38;;;;;;;3.40;0.95;;;28.10;63.80;;;;;;4933316;29;20043;-60
2022/07/27 06:58:04;;;;;;;2.65;0.82;;;27.90;63.80;;;;;;4933112;29;20034;-59
2022/07/27 07:00:30;;;;;;;4.15;1.08;;;28.00;63.50;;;;;;4937173;29;20339;-59
2022/07/27 07:02:58;;;;;;;7.28;1.30;;;28.30;63.80;;;;;;4936399;29;20071;-60
2022/07/27 07:05:24;;;;;;;2.80;1.08;;;28.50;61.70;;;;;;4931675;29;20058;-59
2022/07/27 07:07:50;;;;;;;3.65;1.00;;;28.60;61.20;;;;;;4934445;29;20047;-61
2022/07/27 07:10:16;;;;;;;1.65;0.68;;;28.10;62.10;;;;;;4933684;29;20040;-59
2022/07/27 07:12:42;;;;;;;4.75;0.90;;;28.70;60.20;;;;;;4932810;29;20124;-61
2022/07/27 07:15:08;;;;;;;4.20;0.90;;;28.60;61.20;;;;;;4933198;29;20103;-60
2022/07/27 07:17:34;;;;;;;3.88;0.88;;;28.40;61.20;;;;;;4933828;29;20028;-58
2022/07/27 07:19:59;;;;;;;2.38;0.95;;;28.70;61.50;;;;;;4933664;28;20074;-60
2022/07/27 07:22:25;;;;;;;2.72;0.75;;;29.10;61.40;;;;;;4923938;28;20500;-61
2022/07/27 07:24:51;;;;;;;4.22;1.27;;;29.60;61.20;;;;;;4943609;28;20438;-61
2022/07/27 07:27:22;;;;;;;1.95;0.82;;;29.30;60.90;;;;;;4940660;29;20028;-59
2022/07/27 07:29:48;;;;;;;5.78;1.20;;;29.10;60.10;;;;;;4942268;29;20093;-58
2022/07/27 07:32:15;;;;;;;3.53;0.80;;;29.80;59.30;;;;;;4938482;28;20047;-59
2022/07/27 07:34:41;;;;;;;4.05;0.98;;;29.40;59.50;;;;;;4933209;29;20394;-59
2022/07/27 07:37:07;;;;;;;2.92;1.02;;;30.40;58.30;;;;;;4931867;29;20103;-58
2022/07/27 07:39:32;;;;;;;6.35;1.10;;;30.00;57.10;;;;;;4928285;28;20197;-59
2022/07/27 07:41:58;;;;;;;4.68;1.35;;;29.80;58.00;;;;;;4933818;29;20056;-56
2022/07/27 07:44:25;;;;;;;2.63;0.98;;;29.30;61.00;;;;;;4932795;29;20075;-58
2022/07/27 07:46:50;;;;;;;2.33;1.10;;;29.50;57.70;;;;;;4932180;29;20067;-58
2022/07/27 07:49:16;;;;;;;4.80;0.90;;;29.10;59.80;;;;;;4932455;29;20074;-59
2022/07/27 07:51:42;;;;;;;5.13;0.98;;;27.60;59.50;;;;;;4933475;29;20063;-57
2022/07/27 07:54:07;;;;;;;4.07;0.85;;;26.50;62.40;;;;;;4932703;29;20387;-59
2022/07/27 07:56:33;;;;;;;3.65;0.80;;;27.60;60.60;;;;;;4937180;28;20139;-56
2022/07/27 07:59:00;;;;;;;7.93;1.08;;;28.00;59.40;;;;;;4940171;28;20031;-58
2022/07/27 08:01:25;;;;;;;4.55;0.80;;;28.40;59.70;;;;;;4935479;29;20043;-57
2022/07/27 08:03:51;;;;;;;3.30;0.85;;;29.30;58.10;;;;;;4941036;29;20071;-56
2022/07/27 08:06:18;;;;;;;2.65;0.80;;;29.20;57.90;;;;;;4936194;29;20488;-58
2022/07/27 08:08:44;;;;;;;9.90;0.77;;;28.50;58.40;;;;;;4932823;29;20401;-58
2022/07/27 08:11:09;;;;;;;5.00;0.93;;;28.00;56.90;;;;;;4931912;29;20103;-57
2022/07/27 08:13:35;;;;;;;3.55;0.93;;;25.90;59.80;;;;;;4933076;29;20115;-59
2022/07/27 08:16:00;;;;;;;2.10;0.75;;;25.00;63.50;;;;;;4931863;29;20103;-60
2022/07/27 08:18:26;;;;;;;2.05;1.00;;;24.60;63.90;;;;;;4928261;29;20024;-58
2022/07/27 08:20:52;;;;;;;3.80;0.95;;;25.40;64.00;;;;;;4930740;29;20043;-61
2022/07/27 08:23:18;;;;;;;4.63;0.80;;;26.40;62.30;;;;;;4916413;28;20071;-61
2022/07/27 08:25:44;;;;;;;3.10;1.00;;;28.00;59.70;;;;;;4931986;28;20032;-59
2022/07/27 08:28:10;;;;;;;3.58;1.00;;;27.50;57.40;;;;;;4933136;29;20115;-61
2022/07/27 08:30:35;;;;;;;2.10;0.70;;;26.70;58.70;;;;;;4932523;29;20422;-60
2022/07/27 08:33:03;;;;;;;3.08;0.77;;;25.30;61.20;;;;;;4931509;29;20083;-58
2022/07/27 08:35:30;;;;;;;4.38;0.80;;;24.40;63.40;;;;;;4931798;29;20446;-58
2022/07/27 08:37:56;;;;;;;5.18;0.93;;;24.00;64.90;;;;;;4930707;29;20034;-60
2022/07/27 08:40:22;;;;;;;1.77;0.70;;;24.70;64.90;;;;;;4932615;29;20389;-61
2022/07/27 08:42:47;;;;;;;3.97;0.82;;;25.00;61.70;;;;;;4931695;28;20035;-59
2022/07/27 08:45:16;;;;;;;3.38;0.63;;;24.30;62.60;;;;;;4929057;29;20043;-60
2022/07/27 08:47:44;;;;;;;3.65;1.13;;;24.70;60.00;;;;;;4931745;29;20038;-60
2022/07/27 08:50:22;;;;;;;1.42;0.50;;;24.00;62.10;;;;;;4932181;29;20390;-59
2022/07/27 08:53:04;;;;;;;1.38;0.47;;;23.90;60.40;;;;;;4930974;29;20106;-60
2022/07/27 08:55:39;;;;;;;2.38;0.75;;;23.40;60.60;;;;;;4931292;29;20015;-59
2022/07/27 08:58:06;;;;;;;1.60;0.85;;;23.40;62.00;;;;;;4931995;29;20028;-59
2022/07/27 09:00:33;;;;;;;1.52;0.68;;;23.30;63.10;;;;;;4931652;29;20037;-60
2022/07/27 09:02:59;;;;;;;5.65;0.98;;;23.30;64.40;;;;;;4931898;28;20058;-58
2022/07/27 09:05:26;;;;;;;5.60;0.98;;;22.70;63.40;;;;;;4931984;29;20522;-59
2022/07/27 09:07:52;;;;;;;1.65;0.73;;;22.50;64.60;;;;;;4931028;29;20063;-58
2022/07/27 09:10:33;;;;;;;4.13;0.60;;;22.40;65.30;;;;;;4929822;28;20370;-61
2022/07/27 09:13:14;;;;;;;6.13;1.00;;;22.00;68.00;;;;;;4931264;28;20273;-54
2022/07/27 09:15:47;;;;;;;2.35;1.02;;;21.80;68.70;;;;;;4941399;28;20050;-61
2022/07/27 09:18:24;;;;;;;4.07;0.85;;;21.70;70.00;;;;;;4941608;29;20147;-60
2022/07/27 09:21:10;;;;;;;3.15;1.00;;;21.30;69.40;;;;;;4938184;29;20093;-57
2022/07/27 09:23:40;;;;;;;2.35;1.00;;;21.60;68.90;;;;;;4922256;28;20138;-59
2022/07/27 09:26:15;;;;;;;3.25;0.70;;;21.60;67.60;;;;;;4929130;29;20040;-58
2022/07/27 09:28:41;;;;;;;2.58;0.90;;;21.20;66.20;;;;;;4930714;29;20023;-59
2022/07/27 09:31:10;;;;;;;1.98;0.50;;;21.40;66.40;;;;;;4932047;29;20384;-57
2022/07/27 09:33:44;;;;;;;1.90;0.90;;;21.90;65.70;;;;;;4932404;29;20032;-60
2022/07/27 09:36:11;;;;;;;3.20;0.80;;;22.70;64.40;;;;;;4931355;29;20024;-60
2022/07/27 09:38:37;;;;;;;3.17;0.60;;;22.80;64.30;;;;;;4932084;29;20494;-61
2022/07/27 09:41:06;;;;;;;1.92;0.60;;;22.90;63.30;;;;;;4931055;29;20078;-59
2022/07/27 09:43:53;;;;;;;2.28;0.80;;;22.60;65.10;;;;;;4931521;29;20027;-59
2022/07/27 09:46:31;;;;;;;2.42;0.80;;;22.40;65.40;;;;;;4930155;29;20034;-62
2022/07/27 09:48:57;;;;;;;4.57;1.25;;;22.60;66.50;;;;;;4932624;28;20043;-59
2022/07/27 09:51:25;;;;;;;6.72;0.73;;;23.00;65.70;;;;;;4936285;29;20047;-61
2022/07/27 09:53:56;;;;;;;2.63;1.10;;;23.30;67.30;;;;;;4932531;28;20024;-58
2022/07/27 09:56:26;;;;;;;2.25;0.80;;;23.30;64.50;;;;;;4931629;29;20030;-59
2022/07/27 09:58:57;;;;;;;3.70;1.05;;;23.70;66.50;;;;;;4931336;29;20039;-61
2022/07/27 10:01:29;;;;;;;2.58;0.70;;;23.80;64.30;;;;;;4930302;29;20027;-59
2022/07/27 10:03:57;;;;;;;2.17;1.05;;;24.10;63.10;;;;;;4935483;28;20107;-57
2022/07/27 10:06:24;;;;;;;4.72;1.00;;;24.90;61.10;;;;;;4927761;29;20040;-58
2022/07/27 10:08:52;;;;;;;3.30;0.80;;;25.00;61.30;;;;;;4932380;28;20059;-57
2022/07/27 10:11:20;;;;;;;3.38;0.82;;;24.50;62.50;;;;;;4929802;29;20024;-59
2022/07/27 10:13:47;;;;;;;4.25;1.15;;;25.40;60.20;;;;;;4930357;29;20100;-62
2022/07/27 10:16:18;;;;;;;2.25;0.75;;;25.00;60.50;;;;;;4931505;29;20639;-60
2022/07/27 10:18:46;;;;;;;1.85;0.75;;;25.30;59.70;;;;;;4929867;29;20118;-59
2022/07/27 10:21:12;;;;;;;1.40;0.60;;;25.70;60.70;;;;;;4917608;29;20036;-57
2022/07/27 10:23:38;;;;;;;3.55;1.27;;;25.50;57.00;;;;;;4914722;28;20525;-60
2022/07/27 10:26:19;;;;;;;2.88;0.70;;;25.00;59.50;;;;;;4931100;29;20502;-59
2022/07/27 10:28:56;;;;;;;2.05;0.60;;;24.70;60.60;;;;;;4941965;29;20020;-58
2022/07/27 10:31:36;;;;;;;3.15;0.82;;;24.80;61.10;;;;;;4928267;28;20027;-58
2022/07/27 10:34:05;;;;;;;4.65;0.85;;;24.90;59.30;;;;;;4931012;29;20189;-59
2022/07/27 10:36:30;;;;;;;3.70;0.82;;;24.10;60.90;;;;;;4929861;28;20032;-58
2022/07/27 10:39:02;;;;;;;5.70;0.85;;;23.90;60.60;;;;;;4931918;29;20465;-57
2022/07/27 10:41:27;;;;;;;2.80;0.90;;;23.90;61.50;;;;;;4931123;29;20051;-56
2022/07/27 10:44:20;;;;;;;4.57;0.73;;;24.10;63.10;;;;;;4935240;29;20615;-59
2022/07/27 10:47:26;;;;;;;2.58;0.85;;;24.70;61.90;;;;;;4935749;29;20047;-58
2022/07/27 10:50:14;;;;;;;4.32;0.75;;;24.50;61.70;;;;;;4934771;29;20425;-58
2022/07/27 10:52:47;;;;;;;3.40;0.70;;;24.00;60.80;;;;;;4934130;29;20023;-55
2022/07/27 10:55:41;;;;;;;1.73;0.65;;;23.20;61.90;;;;;;4931792;28;20024;-57
2022/07/27 10:58:09;;;;;;;3.50;0.90;;;22.70;62.70;;;;;;4932808;29;20024;-57
2022/07/27 11:00:50;;;;;;;1.98;0.95;;;22.30;65.60;;;;;;4934104;28;20347;-60
2022/07/27 11:03:33;;;;;;;4.15;1.00;;;22.40;64.10;;;;;;4932618;29;20062;-58
2022/07/27 11:06:04;;;;;;;3.33;0.85;;;22.20;63.20;;;;;;4930418;29;20031;-56
2022/07/27 11:08:33;;;;;;;3.65;0.82;;;22.00;62.40;;;;;;4934813;28;20047;-57
2022/07/27 11:11:00;;;;;;;4.22;1.08;;;22.10;64.50;;;;;;4933147;29;20124;-57
2022/07/27 11:13:27;;;;;;;2.65;1.02;;;22.30;62.50;;;;;;4932504;29;20054;-59
2022/07/27 11:16:00;;;;;;;3.33;0.93;;;22.80;61.40;;;;;;4931699;29;20098;-57
2022/07/27 11:18:40;;;;;;;2.00;0.80;;;22.60;63.30;;;;;;4933334;29;20031;-59
2022/07/27 11:21:21;;;;;;;4.72;1.02;;;22.90;64.30;;;;;;4927360;29;20571;-58
2022/07/27 11:23:58;;;;;;;3.33;0.82;;;23.40;63.10;;;;;;4916646;28;20047;-59
2022/07/27 11:26:25;;;;;;;4.43;0.90;;;23.80;63.90;;;;;;4931049;29;20036;-57
2022/07/27 11:28:52;;;;;;;4.78;2.05;;;24.00;60.90;;;;;;4933483;29;20490;-54
2022/07/27 11:31:18;;;;;;;14.27;1.17;;;24.10;62.20;;;;;;4932427;29;20050;-58
2022/07/27 11:33:52;;;;;;;4.45;1.05;;;24.00;61.00;;;;;;4923543;29;20028;-54
2022/07/27 11:36:19;;;;;;;4.00;1.02;;;23.70;61.60;;;;;;4928222;29;20082;-59
2022/07/27 11:38:50;;;;;;;4.55;1.17;;;23.50;62.00;;;;;;4933324;29;20031;-59
2022/07/27 11:41:26;;;;;;;3.38;0.85;;;23.30;61.70;;;;;;4933430;29;20032;-60
2022/07/27 11:43:53;;;;;;;2.42;1.05;;;23.20;63.40;;;;;;4925156;29;20032;-58
2022/07/27 11:46:24;;;;;;;3.72;1.17;;;23.40;63.60;;;;;;4928366;29;20203;-58
2022/07/27 11:49:14;;;;;;;3.88;1.17;;;23.30;63.30;;;;;;4931146;29;20031;-58
2022/07/27 11:51:43;;;;;;;6.03;2.20;;;23.60;63.20;;;;;;4932100;29;20040;-57
2022/07/27 11:54:32;;;;;;;1.90;1.10;;;23.70;60.60;;;;;;4934002;29;20127;-57
2022/07/27 11:57:15;;;;;;;3.85;1.38;;;23.30;61.20;;;;;;4932266;29;20070;-59
2022/07/27 11:59:42;;;;;;;2.17;1.05;;;22.90;64.10;;;;;;4932292;28;20042;-60
2022/07/27 12:02:12;;;;;;;3.55;0.77;;;22.70;65.00;;;;;;4930963;29;20032;-58
2022/07/27 12:04:40;;;;;;;2.92;1.48;;;22.40;65.60;;;;;;4933369;28;20054;-58
2022/07/27 12:07:09;;;;;;;3.85;1.10;;;22.30;65.00;;;;;;4929182;29;20027;-55
2022/07/27 12:09:43;;;;;;;5.10;1.10;;;22.20;65.50;;;;;;4929208;29;20044;-59
2022/07/27 12:12:25;;;;;;;2.20;0.90;;;22.30;65.00;;;;;;4932753;28;20413;-59
2022/07/27 12:14:57;;;;;;;1.92;1.02;;;22.40;65.60;;;;;;4929860;29;20024;-56
2022/07/27 12:17:33;;;;;;;3.22;0.95;;;22.60;64.50;;;;;;4931571;29;20529;-55
2022/07/27 12:20:08;;;;;;;4.68;1.20;;;22.80;62.50;;;;;;4932698;29;20047;-54
2022/07/27 12:22:43;;;;;;;1.60;0.82;;;23.00;63.20;;;;;;4932057;29;20038;-56
2022/07/27 12:25:09;;;;;;;5.05;1.00;;;22.90;61.20;;;;;;4930220;29;20055;-57
2022/07/27 12:27:36;;;;;;;5.43;1.45;;;22.90;60.30;;;;;;4927761;29;20374;-57
2022/07/27 12:30:15;;;;;;;6.25;1.20;;;22.90;61.30;;;;;;4929016;29;20059;-52
2022/07/27 12:32:44;;;;;;;3.97;0.82;;;22.70;62.00;;;;;;4929794;29;20086;-58
2022/07/27 12:35:29;;;;;;;3.60;1.35;;;22.80;62.10;;;;;;4931574;29;20074;-59
2022/07/27 12:37:56;;;;;;;2.88;1.10;;;22.70;64.10;;;;;;4926649;29;20039;-59
2022/07/27 12:40:22;;;;;;;4.10;1.08;;;23.00;61.80;;;;;;4924632;29;20508;-57
2022/07/27 12:42:58;;;;;;;1.88;1.17;;;23.00;61.60;;;;;;4928663;28;20027;-53
2022/07/27 12:45:30;;;;;;;2.28;1.23;;;23.20;59.60;;;;;;4927204;29;20032;-59
2022/07/27 12:48:08;;;;;;;3.53;1.27;;;22.90;59.90;;;;;;4924175;29;20027;-56
2022/07/27 12:50:34;;;;;;;2.15;1.00;;;23.00;59.00;;;;;;4926837;29;20046;-60
2022/07/27 12:53:00;;;;;;;3.13;0.90;;;23.00;60.90;;;;;;4929767;29;20445;-56
2022/07/27 12:55:25;;;;;;;3.67;1.00;;;22.80;59.30;;;;;;4928872;29;20028;-59